sensor_id;sensor_type;location;lat;lon;timestamp;P1;P2;P0
47079;PMS5003;33067;49.296;14.470;2023-07-20T00:00:49;10;10;
47079;PMS5003;33067;49.296;14.470;2023-07-20T00:03:15;10;10;
47079;PMS5003;33067;49.296;14.470;2023-07-20T00:05:41;10;10;
47079;PMS5003;33067;49.296;14.470;2023-07-20T00:08:07;11;11;
47079;PMS5003;33067;49.296;14.470;2023-07-20T00:10:33;12;12;
47079;PMS5003;33067;49.296;14.470;2023-07-20T00:12:58;12;11;
47079;PMS5003;33067;49.296;14.470;2023-07-20T00:15:24;10;10;
47079;PMS5003;33067;49.296;14.470;2023-07-20T00:17:49;14;11;
47079;PMS5003;33067;49.296;14.470;2023-07-20T00:20:14;12;12;
47079;PMS5003;33067;49.296;14.470;2023-07-20T00:22:39;14;14;
47079;PMS5003;33067;49.296;14.470;2023-07-20T00:25:04;12;12;
47079;PMS5003;33067;49.296;14.470;2023-07-20T00:27:29;9;9;
47079;PMS5003;33067;49.296;14.470;2023-07-20T00:29:54;12;11;
47079;PMS5003;33067;49.296;14.470;2023-07-20T00:32:20;13;12;
47079;PMS5003;33067;49.296;14.470;2023-07-20T00:34:45;12;12;
47079;PMS5003;33067;49.296;14.470;2023-07-20T00:37:10;12;12;
47079;PMS5003;33067;49.296;14.470;2023-07-20T00:39:35;13;13;
47079;PMS5003;33067;49.296;14.470;2023-07-20T00:42:00;12;12;
47079;PMS5003;33067;49.296;14.470;2023-07-20T00:44:25;12;12;
47079;PMS5003;33067;49.296;14.470;2023-07-20T00:46:50;12;12;
47079;PMS5003;33067;49.296;14.470;2023-07-20T00:49:16;10;10;
47079;PMS5003;33067;49.296;14.470;2023-07-20T00:51:40;13;13;
47079;PMS5003;33067;49.296;14.470;2023-07-20T00:54:05;12;12;
47079;PMS5003;33067;49.296;14.470;2023-07-20T00:56:30;11;11;
47079;PMS5003;33067;49.296;14.470;2023-07-20T00:58:55;12;11;
47079;PMS5003;33067;49.296;14.470;2023-07-20T01:01:21;11;11;
47079;PMS5003;33067;49.296;14.470;2023-07-20T01:03:45;11;11;
47079;PMS5003;33067;49.296;14.470;2023-07-20T01:06:14;15;12;
47079;PMS5003;33067;49.296;14.470;2023-07-20T01:08:36;14;14;
47079;PMS5003;33067;49.296;14.470;2023-07-20T01:11:03;14;14;
47079;PMS5003;33067;49.296;14.470;2023-07-20T01:13:25;13;13;
47079;PMS5003;33067;49.296;14.470;2023-07-20T01:15:52;10;10;
47079;PMS5003;33067;49.296;14.470;2023-07-20T01:18:15;11;11;
47079;PMS5003;33067;49.296;14.470;2023-07-20T01:20:41;12;12;
47079;PMS5003;33067;49.296;14.470;2023-07-20T01:23:15;12;11;
47079;PMS5003;33067;49.296;14.470;2023-07-20T01:25:34;13;13;
47079;PMS5003;33067;49.296;14.470;2023-07-20T01:28:10;13;13;
47079;PMS5003;33067;49.296;14.470;2023-07-20T01:32:46;11;11;
47079;PMS5003;33067;49.296;14.470;2023-07-20T01:35:11;14;12;
47079;PMS5003;33067;49.296;14.470;2023-07-20T01:37:36;16;16;
47079;PMS5003;33067;49.296;14.470;2023-07-20T01:40:01;11;11;
47079;PMS5003;33067;49.296;14.470;2023-07-20T01:42:26;11;11;
47079;PMS5003;33067;49.296;14.470;2023-07-20T01:44:51;12;12;
47079;PMS5003;33067;49.296;14.470;2023-07-20T01:47:16;11;11;
47079;PMS5003;33067;49.296;14.470;2023-07-20T01:49:41;12;12;
47079;PMS5003;33067;49.296;14.470;2023-07-20T01:52:07;14;13;
47079;PMS5003;33067;49.296;14.470;2023-07-20T01:54:32;14;14;
47079;PMS5003;33067;49.296;14.470;2023-07-20T01:56:58;13;13;
47079;PMS5003;33067;49.296;14.470;2023-07-20T01:59:22;11;11;
47079;PMS5003;33067;49.296;14.470;2023-07-20T02:01:48;12;12;
47079;PMS5003;33067;49.296;14.470;2023-07-20T02:04:13;10;10;
47079;PMS5003;33067;49.296;14.470;2023-07-20T02:06:38;13;13;
47079;PMS5003;33067;49.296;14.470;2023-07-20T02:09:03;11;11;
47079;PMS5003;33067;49.296;14.470;2023-07-20T02:13:00;12;10;
47079;PMS5003;33067;49.296;14.470;2023-07-20T02:15:26;11;11;
47079;PMS5003;33067;49.296;14.470;2023-07-20T02:17:50;13;13;
47079;PMS5003;33067;49.296;14.470;2023-07-20T02:20:15;15;12;
47079;PMS5003;33067;49.296;14.470;2023-07-20T02:22:41;11;11;
47079;PMS5003;33067;49.296;14.470;2023-07-20T02:25:06;14;14;
47079;PMS5003;33067;49.296;14.470;2023-07-20T02:27:31;11;10;
47079;PMS5003;33067;49.296;14.470;2023-07-20T02:29:56;10;10;
47079;PMS5003;33067;49.296;14.470;2023-07-20T02:32:21;11;11;
47079;PMS5003;33067;49.296;14.470;2023-07-20T02:34:46;12;11;
47079;PMS5003;33067;49.296;14.470;2023-07-20T02:37:12;13;13;
47079;PMS5003;33067;49.296;14.470;2023-07-20T02:39:36;13;13;
47079;PMS5003;33067;49.296;14.470;2023-07-20T02:42:02;11;11;
47079;PMS5003;33067;49.296;14.470;2023-07-20T02:44:28;13;12;
47079;PMS5003;33067;49.296;14.470;2023-07-20T02:46:53;12;12;
47079;PMS5003;33067;49.296;14.470;2023-07-20T02:49:18;16;14;
47079;PMS5003;33067;49.296;14.470;2023-07-20T02:51:43;11;11;
47079;PMS5003;33067;49.296;14.470;2023-07-20T02:54:09;13;13;
47079;PMS5003;33067;49.296;14.470;2023-07-20T02:56:34;11;11;
47079;PMS5003;33067;49.296;14.470;2023-07-20T02:59:01;12;12;
47079;PMS5003;33067;49.296;14.470;2023-07-20T03:01:24;16;14;
47079;PMS5003;33067;49.296;14.470;2023-07-20T03:03:49;13;13;
47079;PMS5003;33067;49.296;14.470;2023-07-20T03:06:14;13;13;
47079;PMS5003;33067;49.296;14.470;2023-07-20T03:08:39;13;13;
47079;PMS5003;33067;49.296;14.470;2023-07-20T03:11:04;11;11;
47079;PMS5003;33067;49.296;14.470;2023-07-20T03:13:30;16;16;
47079;PMS5003;33067;49.296;14.470;2023-07-20T03:15:55;14;13;
47079;PMS5003;33067;49.296;14.470;2023-07-20T03:18:21;16;16;
47079;PMS5003;33067;49.296;14.470;2023-07-20T03:20:46;13;13;
47079;PMS5003;33067;49.296;14.470;2023-07-20T03:23:11;13;13;
47079;PMS5003;33067;49.296;14.470;2023-07-20T03:25:36;13;13;
47079;PMS5003;33067;49.296;14.470;2023-07-20T03:28:01;13;12;
47079;PMS5003;33067;49.296;14.470;2023-07-20T03:30:26;12;12;
47079;PMS5003;33067;49.296;14.470;2023-07-20T03:32:51;13;13;
47079;PMS5003;33067;49.296;14.470;2023-07-20T03:35:17;15;15;
47079;PMS5003;33067;49.296;14.470;2023-07-20T03:37:43;18;16;
47079;PMS5003;33067;49.296;14.470;2023-07-20T03:40:08;12;12;
47079;PMS5003;33067;49.296;14.470;2023-07-20T03:42:33;13;12;
47079;PMS5003;33067;49.296;14.470;2023-07-20T03:44:58;12;12;
47079;PMS5003;33067;49.296;14.470;2023-07-20T03:47:23;12;12;
47079;PMS5003;33067;49.296;14.470;2023-07-20T03:49:48;12;12;
47079;PMS5003;33067;49.296;14.470;2023-07-20T03:52:13;12;11;
47079;PMS5003;33067;49.296;14.470;2023-07-20T03:54:39;17;14;
47079;PMS5003;33067;49.296;14.470;2023-07-20T03:57:04;16;16;
47079;PMS5003;33067;49.296;14.470;2023-07-20T03:59:29;14;12;
47079;PMS5003;33067;49.296;14.470;2023-07-20T04:01:54;12;12;
47079;PMS5003;33067;49.296;14.470;2023-07-20T04:04:20;15;15;
47079;PMS5003;33067;49.296;14.470;2023-07-20T04:06:45;11;11;
47079;PMS5003;33067;49.296;14.470;2023-07-20T04:09:10;14;13;
47079;PMS5003;33067;49.296;14.470;2023-07-20T04:11:35;12;12;
47079;PMS5003;33067;49.296;14.470;2023-07-20T04:14:00;13;12;
47079;PMS5003;33067;49.296;14.470;2023-07-20T04:16:25;16;13;
47079;PMS5003;33067;49.296;14.470;2023-07-20T04:18:50;11;11;
47079;PMS5003;33067;49.296;14.470;2023-07-20T04:21:20;12;12;
47079;PMS5003;33067;49.296;14.470;2023-07-20T04:23:40;13;13;
47079;PMS5003;33067;49.296;14.470;2023-07-20T04:26:05;14;13;
47079;PMS5003;33067;49.296;14.470;2023-07-20T04:28:30;12;12;
47079;PMS5003;33067;49.296;14.470;2023-07-20T04:31:08;15;14;
47079;PMS5003;33067;49.296;14.470;2023-07-20T04:33:21;16;16;
47079;PMS5003;33067;49.296;14.470;2023-07-20T04:35:47;19;17;
47079;PMS5003;33067;49.296;14.470;2023-07-20T04:38:12;17;17;
47079;PMS5003;33067;49.296;14.470;2023-07-20T04:40:37;16;15;
47079;PMS5003;33067;49.296;14.470;2023-07-20T04:43:02;13;13;
47079;PMS5003;33067;49.296;14.470;2023-07-20T04:45:27;15;15;
47079;PMS5003;33067;49.296;14.470;2023-07-20T04:47:52;19;19;
47079;PMS5003;33067;49.296;14.470;2023-07-20T04:50:17;16;16;
47079;PMS5003;33067;49.296;14.470;2023-07-20T04:52:42;14;14;
47079;PMS5003;33067;49.296;14.470;2023-07-20T04:55:08;15;15;
47079;PMS5003;33067;49.296;14.470;2023-07-20T04:57:33;15;15;
47079;PMS5003;33067;49.296;14.470;2023-07-20T04:59:58;16;15;
47079;PMS5003;33067;49.296;14.470;2023-07-20T05:02:24;21;21;
47079;PMS5003;33067;49.296;14.470;2023-07-20T05:04:49;21;20;
47079;PMS5003;33067;49.296;14.470;2023-07-20T05:07:14;15;15;
47079;PMS5003;33067;49.296;14.470;2023-07-20T05:09:39;16;16;
47079;PMS5003;33067;49.296;14.470;2023-07-20T05:12:06;20;19;
47079;PMS5003;33067;49.296;14.470;2023-07-20T05:14:30;20;19;
47079;PMS5003;33067;49.296;14.470;2023-07-20T05:16:56;18;16;
47079;PMS5003;33067;49.296;14.470;2023-07-20T05:19:21;12;12;
47079;PMS5003;33067;49.296;14.470;2023-07-20T05:21:47;18;17;
47079;PMS5003;33067;49.296;14.470;2023-07-20T05:24:13;15;15;
47079;PMS5003;33067;49.296;14.470;2023-07-20T05:26:39;18;18;
47079;PMS5003;33067;49.296;14.470;2023-07-20T05:29:04;11;11;
47079;PMS5003;33067;49.296;14.470;2023-07-20T05:31:30;16;14;
47079;PMS5003;33067;49.296;14.470;2023-07-20T05:33:56;12;12;
47079;PMS5003;33067;49.296;14.470;2023-07-20T05:36:27;21;19;
47079;PMS5003;33067;49.296;14.470;2023-07-20T05:38:47;16;15;
47079;PMS5003;33067;49.296;14.470;2023-07-20T05:41:12;20;19;
47079;PMS5003;33067;49.296;14.470;2023-07-20T05:43:38;12;12;
47079;PMS5003;33067;49.296;14.470;2023-07-20T05:46:04;19;18;
47079;PMS5003;33067;49.296;14.470;2023-07-20T05:48:29;19;17;
47079;PMS5003;33067;49.296;14.470;2023-07-20T05:50:54;17;15;
47079;PMS5003;33067;49.296;14.470;2023-07-20T05:53:19;22;20;
47079;PMS5003;33067;49.296;14.470;2023-07-20T05:55:51;16;16;
47079;PMS5003;33067;49.296;14.470;2023-07-20T05:58:10;13;13;
47079;PMS5003;33067;49.296;14.470;2023-07-20T06:00:36;12;12;
47079;PMS5003;33067;49.296;14.470;2023-07-20T06:03:02;14;12;
47079;PMS5003;33067;49.296;14.470;2023-07-20T06:05:29;13;13;
47079;PMS5003;33067;49.296;14.470;2023-07-20T06:07:53;12;11;
47079;PMS5003;33067;49.296;14.470;2023-07-20T06:10:18;15;14;
47079;PMS5003;33067;49.296;14.470;2023-07-20T06:12:44;18;14;
47079;PMS5003;33067;49.296;14.470;2023-07-20T06:17:36;12;12;
47079;PMS5003;33067;49.296;14.470;2023-07-20T06:20:02;13;13;
47079;PMS5003;33067;49.296;14.470;2023-07-20T06:22:28;14;14;
47079;PMS5003;33067;49.296;14.470;2023-07-20T06:24:53;13;13;
47079;PMS5003;33067;49.296;14.470;2023-07-20T06:27:19;13;13;
47079;PMS5003;33067;49.296;14.470;2023-07-20T06:29:45;14;13;
47079;PMS5003;33067;49.296;14.470;2023-07-20T06:32:11;14;14;
47079;PMS5003;33067;49.296;14.470;2023-07-20T06:34:36;13;13;
47079;PMS5003;33067;49.296;14.470;2023-07-20T06:37:03;15;15;
47079;PMS5003;33067;49.296;14.470;2023-07-20T06:39:29;15;14;
47079;PMS5003;33067;49.296;14.470;2023-07-20T06:41:54;13;12;
47079;PMS5003;33067;49.296;14.470;2023-07-20T06:44:20;15;15;
47079;PMS5003;33067;49.296;14.470;2023-07-20T06:46:45;11;11;
47079;PMS5003;33067;49.296;14.470;2023-07-20T06:49:15;14;14;
47079;PMS5003;33067;49.296;14.470;2023-07-20T06:51:37;12;12;
47079;PMS5003;33067;49.296;14.470;2023-07-20T06:54:03;14;12;
47079;PMS5003;33067;49.296;14.470;2023-07-20T06:56:29;14;14;
47079;PMS5003;33067;49.296;14.470;2023-07-20T06:58:55;12;12;
47079;PMS5003;33067;49.296;14.470;2023-07-20T07:01:20;12;12;
47079;PMS5003;33067;49.296;14.470;2023-07-20T07:03:46;14;13;
47079;PMS5003;33067;49.296;14.470;2023-07-20T07:06:12;13;13;
47079;PMS5003;33067;49.296;14.470;2023-07-20T07:08:37;17;17;
47079;PMS5003;33067;49.296;14.470;2023-07-20T07:11:03;15;13;
47079;PMS5003;33067;49.296;14.470;2023-07-20T07:13:29;11;11;
47079;PMS5003;33067;49.296;14.470;2023-07-20T07:15:55;11;11;
47079;PMS5003;33067;49.296;14.470;2023-07-20T07:18:20;12;12;
47079;PMS5003;33067;49.296;14.470;2023-07-20T07:20:51;15;13;
47079;PMS5003;33067;49.296;14.470;2023-07-20T07:23:12;10;10;
47079;PMS5003;33067;49.296;14.470;2023-07-20T07:25:38;10;10;
47079;PMS5003;33067;49.296;14.470;2023-07-20T07:28:04;10;10;
47079;PMS5003;33067;49.296;14.470;2023-07-20T07:30:29;12;10;
47079;PMS5003;33067;49.296;14.470;2023-07-20T07:32:55;12;10;
47079;PMS5003;33067;49.296;14.470;2023-07-20T07:35:21;10;9;
47079;PMS5003;33067;49.296;14.470;2023-07-20T07:37:47;10;10;
47079;PMS5003;33067;49.296;14.470;2023-07-20T07:40:12;12;11;
47079;PMS5003;33067;49.296;14.470;2023-07-20T07:42:38;10;9;
47079;PMS5003;33067;49.296;14.470;2023-07-20T07:45:04;7;7;
47079;PMS5003;33067;49.296;14.470;2023-07-20T07:47:30;7;7;
47079;PMS5003;33067;49.296;14.470;2023-07-20T07:49:55;8;8;
47079;PMS5003;33067;49.296;14.470;2023-07-20T07:52:21;10;10;
47079;PMS5003;33067;49.296;14.470;2023-07-20T07:54:47;8;8;
47079;PMS5003;33067;49.296;14.470;2023-07-20T07:57:13;11;11;
47079;PMS5003;33067;49.296;14.470;2023-07-20T07:59:39;12;10;
47079;PMS5003;33067;49.296;14.470;2023-07-20T08:02:05;10;10;
47079;PMS5003;33067;49.296;14.470;2023-07-20T08:04:30;8;8;
47079;PMS5003;33067;49.296;14.470;2023-07-20T08:06:56;8;8;
47079;PMS5003;33067;49.296;14.470;2023-07-20T08:09:22;9;9;
47079;PMS5003;33067;49.296;14.470;2023-07-20T08:11:48;7;7;
47079;PMS5003;33067;49.296;14.470;2023-07-20T08:14:13;9;9;
47079;PMS5003;33067;49.296;14.470;2023-07-20T08:16:40;8;8;
47079;PMS5003;33067;49.296;14.470;2023-07-20T08:19:05;7;7;
47079;PMS5003;33067;49.296;14.470;2023-07-20T08:21:30;8;8;
47079;PMS5003;33067;49.296;14.470;2023-07-20T08:23:56;10;9;
47079;PMS5003;33067;49.296;14.470;2023-07-20T08:26:22;13;10;
47079;PMS5003;33067;49.296;14.470;2023-07-20T08:28:48;12;11;
47079;PMS5003;33067;49.296;14.470;2023-07-20T08:31:14;11;11;
47079;PMS5003;33067;49.296;14.470;2023-07-20T08:33:39;12;11;
47079;PMS5003;33067;49.296;14.470;2023-07-20T08:36:05;9;9;
47079;PMS5003;33067;49.296;14.470;2023-07-20T08:38:31;10;10;
47079;PMS5003;33067;49.296;14.470;2023-07-20T08:40:57;8;8;
47079;PMS5003;33067;49.296;14.470;2023-07-20T08:43:23;9;9;
47079;PMS5003;33067;49.296;14.470;2023-07-20T08:45:49;12;12;
47079;PMS5003;33067;49.296;14.470;2023-07-20T08:48:14;10;9;
47079;PMS5003;33067;49.296;14.470;2023-07-20T08:50:40;10;10;
47079;PMS5003;33067;49.296;14.470;2023-07-20T08:53:06;7;7;
47079;PMS5003;33067;49.296;14.470;2023-07-20T08:55:32;11;11;
47079;PMS5003;33067;49.296;14.470;2023-07-20T08:57:58;9;7;
47079;PMS5003;33067;49.296;14.470;2023-07-20T09:00:24;11;11;
47079;PMS5003;33067;49.296;14.470;2023-07-20T09:02:49;10;10;
47079;PMS5003;33067;49.296;14.470;2023-07-20T09:05:15;11;11;
47079;PMS5003;33067;49.296;14.470;2023-07-20T09:07:40;7;7;
47079;PMS5003;33067;49.296;14.470;2023-07-20T09:10:06;9;9;
47079;PMS5003;33067;49.296;14.470;2023-07-20T09:12:32;12;12;
47079;PMS5003;33067;49.296;14.470;2023-07-20T09:14:57;9;9;
47079;PMS5003;33067;49.296;14.470;2023-07-20T09:17:23;9;8;
47079;PMS5003;33067;49.296;14.470;2023-07-20T09:19:49;9;9;
47079;PMS5003;33067;49.296;14.470;2023-07-20T09:22:14;9;9;
47079;PMS5003;33067;49.296;14.470;2023-07-20T09:24:40;8;8;
47079;PMS5003;33067;49.296;14.470;2023-07-20T09:27:06;6;6;
47079;PMS5003;33067;49.296;14.470;2023-07-20T09:29:32;8;8;
47079;PMS5003;33067;49.296;14.470;2023-07-20T09:31:59;9;9;
47079;PMS5003;33067;49.296;14.470;2023-07-20T09:34:23;10;10;
47079;PMS5003;33067;49.296;14.470;2023-07-20T09:36:49;13;12;
47079;PMS5003;33067;49.296;14.470;2023-07-20T09:39:14;18;18;
47079;PMS5003;33067;49.296;14.470;2023-07-20T09:41:41;24;24;
47079;PMS5003;33067;49.296;14.470;2023-07-20T09:44:06;22;22;
47079;PMS5003;33067;49.296;14.470;2023-07-20T09:48:58;10;9;
47079;PMS5003;33067;49.296;14.470;2023-07-20T09:51:24;8;8;
47079;PMS5003;33067;49.296;14.470;2023-07-20T09:53:49;8;8;
47079;PMS5003;33067;49.296;14.470;2023-07-20T09:56:15;8;8;
47079;PMS5003;33067;49.296;14.470;2023-07-20T09:58:41;6;6;
47079;PMS5003;33067;49.296;14.470;2023-07-20T10:01:06;10;9;
47079;PMS5003;33067;49.296;14.470;2023-07-20T10:03:32;8;8;
47079;PMS5003;33067;49.296;14.470;2023-07-20T10:06:00;14;14;
47079;PMS5003;33067;49.296;14.470;2023-07-20T10:08:24;13;13;
47079;PMS5003;33067;49.296;14.470;2023-07-20T10:10:49;10;10;
47079;PMS5003;33067;49.296;14.470;2023-07-20T10:13:16;9;8;
47079;PMS5003;33067;49.296;14.470;2023-07-20T10:15:42;10;10;
47079;PMS5003;33067;49.296;14.470;2023-07-20T10:18:07;10;10;
47079;PMS5003;33067;49.296;14.470;2023-07-20T10:20:32;9;9;
47079;PMS5003;33067;49.296;14.470;2023-07-20T10:22:57;12;11;
47079;PMS5003;33067;49.296;14.470;2023-07-20T10:25:23;10;10;
47079;PMS5003;33067;49.296;14.470;2023-07-20T10:27:49;12;11;
47079;PMS5003;33067;49.296;14.470;2023-07-20T10:30:15;11;11;
47079;PMS5003;33067;49.296;14.470;2023-07-20T10:32:40;9;9;
47079;PMS5003;33067;49.296;14.470;2023-07-20T10:39:57;9;8;
47079;PMS5003;33067;49.296;14.470;2023-07-20T10:42:23;6;6;
47079;PMS5003;33067;49.296;14.470;2023-07-20T10:44:50;7;7;
47079;PMS5003;33067;49.296;14.470;2023-07-20T10:47:14;7;7;
47079;PMS5003;33067;49.296;14.470;2023-07-20T10:52:06;7;7;
47079;PMS5003;33067;49.296;14.470;2023-07-20T10:56:58;5;5;
47079;PMS5003;33067;49.296;14.470;2023-07-20T11:01:49;6;5;
47079;PMS5003;33067;49.296;14.470;2023-07-20T11:04:15;6;6;
47079;PMS5003;33067;49.296;14.470;2023-07-20T11:06:42;6;6;
47079;PMS5003;33067;49.296;14.470;2023-07-20T11:09:07;5;5;
47079;PMS5003;33067;49.296;14.470;2023-07-20T11:11:33;7;7;
47079;PMS5003;33067;49.296;14.470;2023-07-20T11:13:58;5;5;
47079;PMS5003;33067;49.296;14.470;2023-07-20T11:16:33;7;5;
47079;PMS5003;33067;49.296;14.470;2023-07-20T11:18:49;5;5;
47079;PMS5003;33067;49.296;14.470;2023-07-20T11:21:14;5;5;
47079;PMS5003;33067;49.296;14.470;2023-07-20T11:23:40;6;6;
47079;PMS5003;33067;49.296;14.470;2023-07-20T11:26:06;5;5;
47079;PMS5003;33067;49.296;14.470;2023-07-20T11:28:31;6;6;
47079;PMS5003;33067;49.296;14.470;2023-07-20T11:30:57;6;6;
47079;PMS5003;33067;49.296;14.470;2023-07-20T11:33:23;6;6;
47079;PMS5003;33067;49.296;14.470;2023-07-20T11:35:49;5;5;
47079;PMS5003;33067;49.296;14.470;2023-07-20T11:38:14;4;4;
47079;PMS5003;33067;49.296;14.470;2023-07-20T11:40:42;5;5;
47079;PMS5003;33067;49.296;14.470;2023-07-20T11:43:06;5;5;
47079;PMS5003;33067;49.296;14.470;2023-07-20T11:45:31;4;4;
47079;PMS5003;33067;49.296;14.470;2023-07-20T11:47:58;5;4;
47079;PMS5003;33067;49.296;14.470;2023-07-20T11:50:23;5;5;
47079;PMS5003;33067;49.296;14.470;2023-07-20T11:52:48;7;5;
47079;PMS5003;33067;49.296;14.470;2023-07-20T11:55:14;6;6;
47079;PMS5003;33067;49.296;14.470;2023-07-20T11:57:39;6;6;
47079;PMS5003;33067;49.296;14.470;2023-07-20T12:00:06;5;5;
47079;PMS5003;33067;49.296;14.470;2023-07-20T12:02:32;5;4;
47079;PMS5003;33067;49.296;14.470;2023-07-20T12:04:57;5;5;
47079;PMS5003;33067;49.296;14.470;2023-07-20T12:07:22;5;5;
47079;PMS5003;33067;49.296;14.470;2023-07-20T12:12:14;4;4;
47079;PMS5003;33067;49.296;14.470;2023-07-20T12:14:39;5;5;
47079;PMS5003;33067;49.296;14.470;2023-07-20T12:17:07;5;5;
47079;PMS5003;33067;49.296;14.470;2023-07-20T12:19:31;4;4;
47079;PMS5003;33067;49.296;14.470;2023-07-20T12:21:58;3;3;
47079;PMS5003;33067;49.296;14.470;2023-07-20T12:24:22;6;5;
47079;PMS5003;33067;49.296;14.470;2023-07-20T12:26:48;4;4;
47079;PMS5003;33067;49.296;14.470;2023-07-20T12:29:14;6;5;
47079;PMS5003;33067;49.296;14.470;2023-07-20T12:31:39;3;3;
47079;PMS5003;33067;49.296;14.470;2023-07-20T12:34:05;4;4;
47079;PMS5003;33067;49.296;14.470;2023-07-20T12:36:31;4;4;
47079;PMS5003;33067;49.296;14.470;2023-07-20T12:38:57;5;5;
47079;PMS5003;33067;49.296;14.470;2023-07-20T12:41:22;6;6;
47079;PMS5003;33067;49.296;14.470;2023-07-20T12:43:48;5;5;
47079;PMS5003;33067;49.296;14.470;2023-07-20T12:46:13;4;4;
47079;PMS5003;33067;49.296;14.470;2023-07-20T12:48:40;4;4;
47079;PMS5003;33067;49.296;14.470;2023-07-20T12:51:04;3;3;
47079;PMS5003;33067;49.296;14.470;2023-07-20T12:53:30;5;5;
47079;PMS5003;33067;49.296;14.470;2023-07-20T12:55:56;4;4;
47079;PMS5003;33067;49.296;14.470;2023-07-20T12:58:21;3;3;
47079;PMS5003;33067;49.296;14.470;2023-07-20T13:00:47;3;3;
47079;PMS5003;33067;49.296;14.470;2023-07-20T13:03:13;4;4;
47079;PMS5003;33067;49.296;14.470;2023-07-20T13:05:39;3;3;
47079;PMS5003;33067;49.296;14.470;2023-07-20T13:08:04;4;4;
47079;PMS5003;33067;49.296;14.470;2023-07-20T13:10:30;6;5;
47079;PMS5003;33067;49.296;14.470;2023-07-20T13:12:56;5;4;
47079;PMS5003;33067;49.296;14.470;2023-07-20T13:15:24;4;4;
47079;PMS5003;33067;49.296;14.470;2023-07-20T13:17:47;4;4;
47079;PMS5003;33067;49.296;14.470;2023-07-20T13:20:13;4;4;
47079;PMS5003;33067;49.296;14.470;2023-07-20T13:22:39;3;3;
47079;PMS5003;33067;49.296;14.470;2023-07-20T13:25:05;2;2;
47079;PMS5003;33067;49.296;14.470;2023-07-20T13:27:30;4;4;
47079;PMS5003;33067;49.296;14.470;2023-07-20T13:29:56;5;5;
47079;PMS5003;33067;49.296;14.470;2023-07-20T13:32:21;5;4;
47079;PMS5003;33067;49.296;14.470;2023-07-20T13:34:47;4;4;
47079;PMS5003;33067;49.296;14.470;2023-07-20T13:37:13;6;5;
47079;PMS5003;33067;49.296;14.470;2023-07-20T13:39:38;4;4;
47079;PMS5003;33067;49.296;14.470;2023-07-20T13:42:04;6;5;
47079;PMS5003;33067;49.296;14.470;2023-07-20T13:44:30;3;3;
47079;PMS5003;33067;49.296;14.470;2023-07-20T13:46:55;6;5;
47079;PMS5003;33067;49.296;14.470;2023-07-20T13:49:22;5;5;
47079;PMS5003;33067;49.296;14.470;2023-07-20T13:51:47;6;6;
47079;PMS5003;33067;49.296;14.470;2023-07-20T13:54:13;8;8;
47079;PMS5003;33067;49.296;14.470;2023-07-20T13:56:38;9;9;
47079;PMS5003;33067;49.296;14.470;2023-07-20T13:59:04;8;8;
47079;PMS5003;33067;49.296;14.470;2023-07-20T14:01:30;9;9;
47079;PMS5003;33067;49.296;14.470;2023-07-20T14:03:55;9;9;
47079;PMS5003;33067;49.296;14.470;2023-07-20T14:06:21;6;6;
47079;PMS5003;33067;49.296;14.470;2023-07-20T14:08:47;5;5;
47079;PMS5003;33067;49.296;14.470;2023-07-20T14:11:12;6;6;
47079;PMS5003;33067;49.296;14.470;2023-07-20T14:13:38;5;5;
47079;PMS5003;33067;49.296;14.470;2023-07-20T14:16:04;5;5;
47079;PMS5003;33067;49.296;14.470;2023-07-20T14:18:30;5;5;
47079;PMS5003;33067;49.296;14.470;2023-07-20T14:20:55;4;4;
47079;PMS5003;33067;49.296;14.470;2023-07-20T14:23:21;5;4;
47079;PMS5003;33067;49.296;14.470;2023-07-20T14:25:47;5;5;
47079;PMS5003;33067;49.296;14.470;2023-07-20T14:28:12;4;4;
47079;PMS5003;33067;49.296;14.470;2023-07-20T14:30:38;4;4;
47079;PMS5003;33067;49.296;14.470;2023-07-20T14:33:04;3;3;
47079;PMS5003;33067;49.296;14.470;2023-07-20T14:35:29;3;3;
47079;PMS5003;33067;49.296;14.470;2023-07-20T14:37:55;2;2;
47079;PMS5003;33067;49.296;14.470;2023-07-20T14:40:21;4;4;
47079;PMS5003;33067;49.296;14.470;2023-07-20T14:42:47;4;4;
47079;PMS5003;33067;49.296;14.470;2023-07-20T14:45:12;6;4;
47079;PMS5003;33067;49.296;14.470;2023-07-20T14:47:38;4;4;
47079;PMS5003;33067;49.296;14.470;2023-07-20T14:50:05;2;2;
47079;PMS5003;33067;49.296;14.470;2023-07-20T14:52:30;5;4;
47079;PMS5003;33067;49.296;14.470;2023-07-20T14:54:55;5;5;
47079;PMS5003;33067;49.296;14.470;2023-07-20T14:57:21;5;5;
47079;PMS5003;33067;49.296;14.470;2023-07-20T14:59:46;4;4;
47079;PMS5003;33067;49.296;14.470;2023-07-20T15:02:12;3;3;
47079;PMS5003;33067;49.296;14.470;2023-07-20T15:04:39;4;4;
47079;PMS5003;33067;49.296;14.470;2023-07-20T15:07:04;4;4;
47079;PMS5003;33067;49.296;14.470;2023-07-20T15:09:29;4;4;
47079;PMS5003;33067;49.296;14.470;2023-07-20T15:11:57;3;3;
47079;PMS5003;33067;49.296;14.470;2023-07-20T15:14:22;4;4;
47079;PMS5003;33067;49.296;14.470;2023-07-20T15:16:46;3;3;
47079;PMS5003;33067;49.296;14.470;2023-07-20T15:19:12;6;5;
47079;PMS5003;33067;49.296;14.470;2023-07-20T15:21:37;4;4;
47079;PMS5003;33067;49.296;14.470;2023-07-20T15:24:03;3;3;
47079;PMS5003;33067;49.296;14.470;2023-07-20T15:26:29;4;4;
47079;PMS5003;33067;49.296;14.470;2023-07-20T15:28:55;3;2;
47079;PMS5003;33067;49.296;14.470;2023-07-20T15:31:20;4;4;
47079;PMS5003;33067;49.296;14.470;2023-07-20T15:33:46;5;5;
47079;PMS5003;33067;49.296;14.470;2023-07-20T15:36:12;4;4;
47079;PMS5003;33067;49.296;14.470;2023-07-20T15:38:37;4;4;
47079;PMS5003;33067;49.296;14.470;2023-07-20T15:41:03;6;5;
47079;PMS5003;33067;49.296;14.470;2023-07-20T15:43:29;4;4;
47079;PMS5003;33067;49.296;14.470;2023-07-20T15:46:00;4;4;
47079;PMS5003;33067;49.296;14.470;2023-07-20T15:48:20;3;3;
47079;PMS5003;33067;49.296;14.470;2023-07-20T15:50:46;3;3;
47079;PMS5003;33067;49.296;14.470;2023-07-20T15:53:12;6;4;
47079;PMS5003;33067;49.296;14.470;2023-07-20T15:55:37;4;4;
47079;PMS5003;33067;49.296;14.470;2023-07-20T15:58:03;3;3;
47079;PMS5003;33067;49.296;14.470;2023-07-20T16:00:29;4;4;
47079;PMS5003;33067;49.296;14.470;2023-07-20T16:02:54;6;6;
47079;PMS5003;33067;49.296;14.470;2023-07-20T16:05:20;5;5;
47079;PMS5003;33067;49.296;14.470;2023-07-20T16:07:46;4;4;
47079;PMS5003;33067;49.296;14.470;2023-07-20T16:10:12;4;4;
47079;PMS5003;33067;49.296;14.470;2023-07-20T16:12:37;5;5;
47079;PMS5003;33067;49.296;14.470;2023-07-20T16:15:04;6;5;
47079;PMS5003;33067;49.296;14.470;2023-07-20T16:17:29;4;4;
47079;PMS5003;33067;49.296;14.470;2023-07-20T16:19:54;4;4;
47079;PMS5003;33067;49.296;14.470;2023-07-20T16:22:20;5;5;
47079;PMS5003;33067;49.296;14.470;2023-07-20T16:24:46;6;5;
47079;PMS5003;33067;49.296;14.470;2023-07-20T16:27:11;7;7;